sensor_id;sensor_type;location;lat;lon;timestamp;pressure;altitude;pressure_sealevel;temperature;humidity
40918;BME280;26644;50.248;19.032;2022-12-18T00:00:15;99512.03;;;-3.46;72.04
40918;BME280;26644;50.248;19.032;2022-12-18T00:01:22;99526.28;;;-3.46;71.97
40918;BME280;26644;50.248;19.032;2022-12-18T00:02:26;99521.94;;;-3.47;71.97
40918;BME280;26644;50.248;19.032;2022-12-18T00:03:28;99519.25;;;-3.47;72.06
40918;BME280;26644;50.248;19.032;2022-12-18T00:04:29;99518.91;;;-3.44;72.09
40918;BME280;26644;50.248;19.032;2022-12-18T00:05:32;99533.88;;;-3.41;72.04
40918;BME280;26644;50.248;19.032;2022-12-18T00:06:35;99519.75;;;-3.43;71.96
40918;BME280;26644;50.248;19.032;2022-12-18T00:07:38;99520.97;;;-3.37;71.80
40918;BME280;26644;50.248;19.032;2022-12-18T00:08:41;99506.47;;;-3.45;71.85
40918;BME280;26644;50.248;19.032;2022-12-18T00:09:43;99534.22;;;-3.36;71.45
40918;BME280;26644;50.248;19.032;2022-12-18T00:10:45;99521.25;;;-3.41;71.41
40918;BME280;26644;50.248;19.032;2022-12-18T00:11:47;99524.13;;;-3.42;71.22
40918;BME280;26644;50.248;19.032;2022-12-18T00:12:50;99513.19;;;-3.49;71.37
40918;BME280;26644;50.248;19.032;2022-12-18T00:13:56;99530.47;;;-3.43;71.47
40918;BME280;26644;50.248;19.032;2022-12-18T00:14:59;99536.72;;;-3.43;71.30
40918;BME280;26644;50.248;19.032;2022-12-18T00:16:02;99539.41;;;-3.43;71.01
40918;BME280;26644;50.248;19.032;2022-12-18T00:17:05;99534.84;;;-3.42;71.18
40918;BME280;26644;50.248;19.032;2022-12-18T00:18:08;99536.03;;;-3.45;71.35
40918;BME280;26644;50.248;19.032;2022-12-18T00:19:10;99542.91;;;-3.42;71.35
40918;BME280;26644;50.248;19.032;2022-12-18T00:20:13;99537.88;;;-3.45;71.35
40918;BME280;26644;50.248;19.032;2022-12-18T00:21:15;99534.34;;;-3.46;71.31
40918;BME280;26644;50.248;19.032;2022-12-18T00:22:18;99544.94;;;-3.44;71.47
40918;BME280;26644;50.248;19.032;2022-12-18T00:23:20;99542.25;;;-3.44;71.03
40918;BME280;26644;50.248;19.032;2022-12-18T00:24:22;99545.25;;;-3.47;70.91
40918;BME280;26644;50.248;19.032;2022-12-18T00:25:24;99545.56;;;-3.50;71.19
40918;BME280;26644;50.248;19.032;2022-12-18T00:26:28;99543.06;;;-3.52;71.29
40918;BME280;26644;50.248;19.032;2022-12-18T00:27:34;99548.41;;;-3.52;71.56
40918;BME280;26644;50.248;19.032;2022-12-18T00:28:38;99548.25;;;-3.50;71.34
40918;BME280;26644;50.248;19.032;2022-12-18T00:29:40;99550.94;;;-3.50;71.29
40918;BME280;26644;50.248;19.032;2022-12-18T00:30:43;99544.88;;;-3.52;71.38
40918;BME280;26644;50.248;19.032;2022-12-18T00:31:44;99550.09;;;-3.51;71.17
40918;BME280;26644;50.248;19.032;2022-12-18T00:32:47;99543.88;;;-3.51;71.34
40918;BME280;26644;50.248;19.032;2022-12-18T00:33:49;99542.19;;;-3.52;71.27
40918;BME280;26644;50.248;19.032;2022-12-18T00:34:53;99549.94;;;-3.49;71.39
40918;BME280;26644;50.248;19.032;2022-12-18T00:35:55;99546.22;;;-3.48;71.54
40918;BME280;26644;50.248;19.032;2022-12-18T00:37:02;99549.63;;;-3.46;71.70
40918;BME280;26644;50.248;19.032;2022-12-18T00:38:04;99547.63;;;-3.44;71.19
40918;BME280;26644;50.248;19.032;2022-12-18T00:39:08;99545.59;;;-3.42;71.22
40918;BME280;26644;50.248;19.032;2022-12-18T00:40:12;99547.47;;;-3.43;71.38
40918;BME280;26644;50.248;19.032;2022-12-18T00:41:16;99549.66;;;-3.38;71.57
40918;BME280;26644;50.248;19.032;2022-12-18T00:42:40;99545.78;;;-3.35;71.28
40918;BME280;26644;50.248;19.032;2022-12-18T00:43:56;99555.38;;;-3.33;71.13
40918;BME280;26644;50.248;19.032;2022-12-18T00:45:00;99555.38;;;-3.33;71.08
40918;BME280;26644;50.248;19.032;2022-12-18T00:46:03;99563.25;;;-3.31;71.13
40918;BME280;26644;50.248;19.032;2022-12-18T00:47:06;99566.81;;;-3.31;71.05
40918;BME280;26644;50.248;19.032;2022-12-18T00:48:08;99567.81;;;-3.32;70.90
40918;BME280;26644;50.248;19.032;2022-12-18T00:49:10;99569.50;;;-3.31;70.93
40918;BME280;26644;50.248;19.032;2022-12-18T00:50:14;99572.19;;;-3.31;70.77
40918;BME280;26644;50.248;19.032;2022-12-18T00:51:16;99568.47;;;-3.30;70.65
40918;BME280;26644;50.248;19.032;2022-12-18T00:52:18;99576.69;;;-3.31;70.51
40918;BME280;26644;50.248;19.032;2022-12-18T00:53:20;99575.53;;;-3.29;70.35
40918;BME280;26644;50.248;19.032;2022-12-18T00:54:23;99575.38;;;-3.27;70.54
40918;BME280;26644;50.248;19.032;2022-12-18T00:55:25;99577.06;;;-3.26;70.58
40918;BME280;26644;50.248;19.032;2022-12-18T00:56:28;99580.44;;;-3.24;70.55
40918;BME280;26644;50.248;19.032;2022-12-18T00:57:29;99580.59;;;-3.26;70.20
40918;BME280;26644;50.248;19.032;2022-12-18T00:58:32;99574.53;;;-3.28;70.24
40918;BME280;26644;50.248;19.032;2022-12-18T00:59:33;99573.72;;;-3.28;70.12
40918;BME280;26644;50.248;19.032;2022-12-18T01:00:38;99577.38;;;-3.29;70.33
40918;BME280;26644;50.248;19.032;2022-12-18T01:01:39;99579.06;;;-3.28;70.36
40918;BME280;26644;50.248;19.032;2022-12-18T01:02:42;99580.75;;;-3.27;70.40
40918;BME280;26644;50.248;19.032;2022-12-18T01:03:43;99578.72;;;-3.33;70.40
40918;BME280;26644;50.248;19.032;2022-12-18T01:04:47;99583.59;;;-3.29;70.10
40918;BME280;26644;50.248;19.032;2022-12-18T01:05:54;99586.44;;;-3.30;70.41
40918;BME280;26644;50.248;19.032;2022-12-18T01:06:58;99582.06;;;-3.31;70.17
40918;BME280;26644;50.248;19.032;2022-12-18T01:07:59;99587.59;;;-3.33;70.06
40918;BME280;26644;50.248;19.032;2022-12-18T01:09:02;99590.63;;;-3.36;69.99
40918;BME280;26644;50.248;19.032;2022-12-18T01:10:05;99592.44;;;-3.36;70.28
40918;BME280;26644;50.248;19.032;2022-12-18T01:11:12;99594.47;;;-3.38;70.38
40918;BME280;26644;50.248;19.032;2022-12-18T01:12:16;99594.63;;;-3.40;70.37
40918;BME280;26644;50.248;19.032;2022-12-18T01:13:18;99588.41;;;-3.41;70.41
40918;BME280;26644;50.248;19.032;2022-12-18T01:14:19;99585.72;;;-3.41;70.35
40918;BME280;26644;50.248;19.032;2022-12-18T01:15:22;99589.19;;;-3.48;70.47
40918;BME280;26644;50.248;19.032;2022-12-18T01:16:25;99587.22;;;-3.46;70.40
40918;BME280;26644;50.248;19.032;2022-12-18T01:17:28;99593.56;;;-3.47;70.62
40918;BME280;26644;50.248;19.032;2022-12-18T01:18:29;99592.06;;;-3.50;70.45
40918;BME280;26644;50.248;19.032;2022-12-18T01:19:33;99593.06;;;-3.51;70.73
40918;BME280;26644;50.248;19.032;2022-12-18T01:20:34;99587.34;;;-3.56;70.70
40918;BME280;26644;50.248;19.032;2022-12-18T01:21:40;99588.34;;;-3.57;70.75
40918;BME280;26644;50.248;19.032;2022-12-18T01:22:41;99593.88;;;-3.59;70.64
40918;BME280;26644;50.248;19.032;2022-12-18T01:23:44;99595.84;;;-3.61;70.61
40918;BME280;26644;50.248;19.032;2022-12-18T01:24:45;99586.97;;;-3.61;70.75
40918;BME280;26644;50.248;19.032;2022-12-18T01:25:48;99572.81;;;-3.71;70.95
40918;BME280;26644;50.248;19.032;2022-12-18T01:26:50;99590.66;;;-3.62;71.23
40918;BME280;26644;50.248;19.032;2022-12-18T01:27:53;99589.50;;;-3.60;71.01
40918;BME280;26644;50.248;19.032;2022-12-18T01:28:55;99594.69;;;-3.58;70.93
40918;BME280;26644;50.248;19.032;2022-12-18T01:29:58;99603.44;;;-3.56;70.96
40918;BME280;26644;50.248;19.032;2022-12-18T01:31:14;99599.44;;;-3.52;71.10
40918;BME280;26644;50.248;19.032;2022-12-18T01:32:21;99597.75;;;-3.53;70.95
40918;BME280;26644;50.248;19.032;2022-12-18T01:33:24;99597.06;;;-3.55;71.04
40918;BME280;26644;50.248;19.032;2022-12-18T01:34:27;99593.53;;;-3.55;71.06
40918;BME280;26644;50.248;19.032;2022-12-18T01:35:29;99598.22;;;-3.58;71.06
40918;BME280;26644;50.248;19.032;2022-12-18T01:36:32;99594.03;;;-3.60;71.04
40918;BME280;26644;50.248;19.032;2022-12-18T01:37:36;99594.31;;;-3.63;71.07
40918;BME280;26644;50.248;19.032;2022-12-18T01:38:38;99600.56;;;-3.63;70.88
40918;BME280;26644;50.248;19.032;2022-12-18T01:39:40;99598.00;;;-3.64;71.21
40918;BME280;26644;50.248;19.032;2022-12-18T01:40:42;99596.34;;;-3.65;71.07
40918;BME280;26644;50.248;19.032;2022-12-18T01:41:46;99587.91;;;-3.70;71.54
40918;BME280;26644;50.248;19.032;2022-12-18T01:43:03;99600.84;;;-3.66;71.46
40918;BME280;26644;50.248;19.032;2022-12-18T01:46:03;99599.03;;;-3.65;71.69
40918;BME280;26644;50.248;19.032;2022-12-18T01:47:05;99602.53;;;-3.65;71.82
40918;BME280;26644;50.248;19.032;2022-12-18T01:48:09;99600.84;;;-3.66;71.83
40918;BME280;26644;50.248;19.032;2022-12-18T01:49:12;99602.72;;;-3.66;71.84
40918;BME280;26644;50.248;19.032;2022-12-18T01:50:17;99598.34;;;-3.67;71.54
40918;BME280;26644;50.248;19.032;2022-12-18T01:51:22;99605.56;;;-3.68;71.81
40918;BME280;26644;50.248;19.032;2022-12-18T01:52:27;99591.75;;;-3.73;71.86
40918;BME280;26644;50.248;19.032;2022-12-18T01:53:33;99610.75;;;-3.66;71.80
40918;BME280;26644;50.248;19.032;2022-12-18T01:54:35;99595.97;;;-3.70;71.90
40918;BME280;26644;50.248;19.032;2022-12-18T01:55:43;99611.28;;;-3.63;72.07
40918;BME280;26644;50.248;19.032;2022-12-18T01:56:49;99611.97;;;-3.61;72.13
40918;BME280;26644;50.248;19.032;2022-12-18T01:57:54;99617.88;;;-3.57;72.00
40918;BME280;26644;50.248;19.032;2022-12-18T01:59:02;99612.50;;;-3.57;71.89
40918;BME280;26644;50.248;19.032;2022-12-18T02:00:12;99606.44;;;-3.59;71.81
40918;BME280;26644;50.248;19.032;2022-12-18T02:01:16;99616.88;;;-3.56;71.56
40918;BME280;26644;50.248;19.032;2022-12-18T02:02:20;99623.06;;;-3.55;71.57
40918;BME280;26644;50.248;19.032;2022-12-18T02:03:24;99625.06;;;-3.58;71.52
40918;BME280;26644;50.248;19.032;2022-12-18T02:04:27;99621.38;;;-3.56;71.69
40918;BME280;26644;50.248;19.032;2022-12-18T02:05:40;99630.28;;;-3.56;71.50
40918;BME280;26644;50.248;19.032;2022-12-18T02:06:58;99621.38;;;-3.56;71.59
40918;BME280;26644;50.248;19.032;2022-12-18T02:08:12;99629.28;;;-3.55;71.57
40918;BME280;26644;50.248;19.032;2022-12-18T02:09:28;99641.69;;;-3.54;71.53
40918;BME280;26644;50.248;19.032;2022-12-18T02:10:44;99629.75;;;-3.60;71.50
40918;BME280;26644;50.248;19.032;2022-12-18T02:12:05;99647.25;;;-3.55;71.45
40918;BME280;26644;50.248;19.032;2022-12-18T02:13:20;99633.06;;;-3.66;71.43
40918;BME280;26644;50.248;19.032;2022-12-18T02:14:38;99647.84;;;-3.62;71.75
40918;BME280;26644;50.248;19.032;2022-12-18T02:15:56;99639.44;;;-3.67;71.65
40918;BME280;26644;50.248;19.032;2022-12-18T02:17:15;99643.13;;;-3.68;71.85
40918;BME280;26644;50.248;19.032;2022-12-18T02:18:24;99643.31;;;-3.69;71.84
40918;BME280;26644;50.248;19.032;2022-12-18T02:19:46;99646.00;;;-3.69;72.11
40918;BME280;26644;50.248;19.032;2022-12-18T02:21:13;99650.66;;;-3.71;71.93
40918;BME280;26644;50.248;19.032;2022-12-18T02:22:34;99654.34;;;-3.72;72.02
40918;BME280;26644;50.248;19.032;2022-12-18T02:23:56;99652.50;;;-3.72;72.10
40918;BME280;26644;50.248;19.032;2022-12-18T02:25:22;99659.53;;;-3.71;71.85
40918;BME280;26644;50.248;19.032;2022-12-18T02:26:36;99662.09;;;-3.69;72.00
40918;BME280;26644;50.248;19.032;2022-12-18T02:27:47;99663.09;;;-3.70;72.07
40918;BME280;26644;50.248;19.032;2022-12-18T02:28:56;99641.03;;;-3.82;72.20
40918;BME280;26644;50.248;19.032;2022-12-18T02:30:06;99658.72;;;-3.71;71.99
40918;BME280;26644;50.248;19.032;2022-12-18T02:31:14;99660.56;;;-3.72;72.17
40918;BME280;26644;50.248;19.032;2022-12-18T02:32:28;99659.88;;;-3.74;71.66
40918;BME280;26644;50.248;19.032;2022-12-18T02:33:36;99659.16;;;-3.76;71.91
40918;BME280;26644;50.248;19.032;2022-12-18T02:34:43;99659.31;;;-3.78;72.02
40918;BME280;26644;50.248;19.032;2022-12-18T02:35:53;99658.50;;;-3.78;72.05
40918;BME280;26644;50.248;19.032;2022-12-18T02:37:04;99660.47;;;-3.80;72.06
40918;BME280;26644;50.248;19.032;2022-12-18T02:38:15;99660.81;;;-3.83;72.25
40918;BME280;26644;50.248;19.032;2022-12-18T02:39:24;99660.81;;;-3.83;72.69
40918;BME280;26644;50.248;19.032;2022-12-18T02:40:39;99663.31;;;-3.82;72.65
40918;BME280;26644;50.248;19.032;2022-12-18T02:41:46;99665.72;;;-3.79;72.62
40918;BME280;26644;50.248;19.032;2022-12-18T02:42:49;99659.47;;;-3.79;72.63
40918;BME280;26644;50.248;19.032;2022-12-18T02:43:57;99665.56;;;-3.77;72.74
40918;BME280;26644;50.248;19.032;2022-12-18T02:45:00;99671.75;;;-3.77;72.45
40918;BME280;26644;50.248;19.032;2022-12-18T02:46:29;99670.75;;;-3.76;72.64
40918;BME280;26644;50.248;19.032;2022-12-18T02:47:41;99680.19;;;-3.71;72.58
40918;BME280;26644;50.248;19.032;2022-12-18T02:48:48;99678.50;;;-3.72;72.47
40918;BME280;26644;50.248;19.032;2022-12-18T02:50:02;99680.03;;;-3.70;72.52
40918;BME280;26644;50.248;19.032;2022-12-18T02:51:21;99686.75;;;-3.66;72.78
40918;BME280;26644;50.248;19.032;2022-12-18T02:52:38;99692.81;;;-3.64;72.16
40918;BME280;26644;50.248;19.032;2022-12-18T02:54:00;99690.81;;;-3.62;71.98
40918;BME280;26644;50.248;19.032;2022-12-18T02:55:19;99686.81;;;-3.58;72.20
40918;BME280;26644;50.248;19.032;2022-12-18T02:56:41;99696.41;;;-3.55;72.28
40918;BME280;26644;50.248;19.032;2022-12-18T02:57:55;99680.16;;;-3.53;72.25
40918;BME280;26644;50.248;19.032;2022-12-18T02:59:13;99687.34;;;-3.54;72.02
40918;BME280;26644;50.248;19.032;2022-12-18T03:00:30;99688.34;;;-3.55;72.04
40918;BME280;26644;50.248;19.032;2022-12-18T03:01:48;99691.34;;;-3.58;72.07
40918;BME280;26644;50.248;19.032;2022-12-18T03:02:59;99700.41;;;-3.59;72.18
40918;BME280;26644;50.248;19.032;2022-12-18T03:04:14;99690.31;;;-3.65;72.04
40918;BME280;26644;50.248;19.032;2022-12-18T03:05:27;99697.66;;;-3.67;72.26
40918;BME280;26644;50.248;19.032;2022-12-18T03:06:41;99704.19;;;-3.70;72.27
40918;BME280;26644;50.248;19.032;2022-12-18T03:07:57;99708.72;;;-3.70;72.46
40918;BME280;26644;50.248;19.032;2022-12-18T03:09:14;99714.38;;;-3.73;72.50
40918;BME280;26644;50.248;19.032;2022-12-18T03:10:26;99713.53;;;-3.74;72.62
40918;BME280;26644;50.248;19.032;2022-12-18T03:11:35;99717.38;;;-3.77;72.51
40918;BME280;26644;50.248;19.032;2022-12-18T03:13:05;99719.41;;;-3.79;72.70
40918;BME280;26644;50.248;19.032;2022-12-18T03:14:15;99713.88;;;-3.77;72.83
40918;BME280;26644;50.248;19.032;2022-12-18T03:15:27;99718.22;;;-3.76;72.85
40918;BME280;26644;50.248;19.032;2022-12-18T03:16:44;99719.75;;;-3.73;72.77
40918;BME280;26644;50.248;19.032;2022-12-18T03:17:55;99707.47;;;-3.76;72.79
40918;BME280;26644;50.248;19.032;2022-12-18T03:19:08;99717.22;;;-3.75;72.68
40918;BME280;26644;50.248;19.032;2022-12-18T03:20:19;99703.75;;;-3.83;72.59
40918;BME280;26644;50.248;19.032;2022-12-18T03:21:29;99710.09;;;-3.84;72.60
40918;BME280;26644;50.248;19.032;2022-12-18T03:22:38;99720.69;;;-3.83;72.92
40918;BME280;26644;50.248;19.032;2022-12-18T03:23:49;99712.09;;;-3.86;72.90
40918;BME280;26644;50.248;19.032;2022-12-18T03:24:56;99717.31;;;-3.85;73.00
40918;BME280;26644;50.248;19.032;2022-12-18T03:26:07;99711.41;;;-3.88;73.10
40918;BME280;26644;50.248;19.032;2022-12-18T03:27:18;99681.53;;;-4.12;73.11
40918;BME280;26644;50.248;19.032;2022-12-18T03:28:31;99711.72;;;-3.92;73.24
40918;BME280;26644;50.248;19.032;2022-12-18T03:29:47;99709.03;;;-3.92;73.24
40918;BME280;26644;50.248;19.032;2022-12-18T03:31:01;99710.03;;;-3.93;73.27
40918;BME280;26644;50.248;19.032;2022-12-18T03:32:11;99712.19;;;-3.96;73.34
40918;BME280;26644;50.248;19.032;2022-12-18T03:33:21;99712.34;;;-3.98;73.45
40918;BME280;26644;50.248;19.032;2022-12-18T03:34:33;99703.91;;;-4.03;73.66
40918;BME280;26644;50.248;19.032;2022-12-18T03:35:42;99719.72;;;-4.00;73.70
40918;BME280;26644;50.248;19.032;2022-12-18T03:36:47;99709.97;;;-4.01;73.67
40918;BME280;26644;50.248;19.032;2022-12-18T03:37:50;99712.50;;;-3.99;73.88
40918;BME280;26644;50.248;19.032;2022-12-18T03:38:52;99724.22;;;-4.00;73.75
40918;BME280;26644;50.248;19.032;2022-12-18T03:39:56;99719.72;;;-4.00;73.80
40918;BME280;26644;50.248;19.032;2022-12-18T03:41:05;99716.31;;;-4.02;73.94
40918;BME280;26644;50.248;19.032;2022-12-18T03:42:46;99720.00;;;-4.03;73.91
40918;BME280;26644;50.248;19.032;2022-12-18T03:44:02;99722.84;;;-4.04;73.96
40918;BME280;26644;50.248;19.032;2022-12-18T03:45:22;99724.53;;;-4.03;74.06
40918;BME280;26644;50.248;19.032;2022-12-18T03:46:36;99726.38;;;-4.04;74.20
40918;BME280;26644;50.248;19.032;2022-12-18T03:47:57;99727.38;;;-4.05;74.19
40918;BME280;26644;50.248;19.032;2022-12-18T03:49:13;99727.66;;;-4.08;74.07
40918;BME280;26644;50.248;19.032;2022-12-18T03:50:34;99721.00;;;-4.04;74.18
40918;BME280;26644;50.248;19.032;2022-12-18T03:51:52;99731.59;;;-4.02;74.17
40918;BME280;26644;50.248;19.032;2022-12-18T03:53:09;99724.22;;;-4.00;74.15
40918;BME280;26644;50.248;19.032;2022-12-18T03:54:25;99729.41;;;-3.99;74.06
40918;BME280;26644;50.248;19.032;2022-12-18T03:55:38;99736.47;;;-3.98;73.97
40918;BME280;26644;50.248;19.032;2022-12-18T03:56:46;99742.00;;;-3.99;73.87
40918;BME280;26644;50.248;19.032;2022-12-18T03:57:53;99742.84;;;-3.99;73.98
40918;BME280;26644;50.248;19.032;2022-12-18T03:59:03;99741.31;;;-4.01;74.00
40918;BME280;26644;50.248;19.032;2022-12-18T04:00:10;99745.00;;;-4.02;73.87
40918;BME280;26644;50.248;19.032;2022-12-18T04:01:17;99744.13;;;-4.03;74.01
40918;BME280;26644;50.248;19.032;2022-12-18T04:02:24;99738.78;;;-4.03;74.28
40918;BME280;26644;50.248;19.032;2022-12-18T04:03:30;99740.47;;;-4.02;74.10
40918;BME280;26644;50.248;19.032;2022-12-18T04:04:36;99743.97;;;-4.01;74.12
40918;BME280;26644;50.248;19.032;2022-12-18T04:05:43;99743.00;;;-4.00;74.31
40918;BME280;26644;50.248;19.032;2022-12-18T04:06:49;99742.84;;;-3.99;73.98
40918;BME280;26644;50.248;19.032;2022-12-18T04:07:56;99749.06;;;-3.98;73.88
40918;BME280;26644;50.248;19.032;2022-12-18T04:08:58;99744.69;;;-3.99;73.87
40918;BME280;26644;50.248;19.032;2022-12-18T04:10:07;99744.53;;;-3.98;74.16
40918;BME280;26644;50.248;19.032;2022-12-18T04:11:13;99745.25;;;-3.96;73.85
40918;BME280;26644;50.248;19.032;2022-12-18T04:12:15;99749.44;;;-3.93;73.92
40918;BME280;26644;50.248;19.032;2022-12-18T04:13:22;99746.78;;;-3.93;73.86
40918;BME280;26644;50.248;19.032;2022-12-18T04:14:27;99750.28;;;-3.93;73.86
40918;BME280;26644;50.248;19.032;2022-12-18T04:15:34;99743.84;;;-4.00;73.74
40918;BME280;26644;50.248;19.032;2022-12-18T04:16:39;99748.44;;;-3.92;73.88
40918;BME280;26644;50.248;19.032;2022-12-18T04:17:48;99751.81;;;-3.90;73.92
40918;BME280;26644;50.248;19.032;2022-12-18T04:18:54;99741.69;;;-3.96;73.67
40918;BME280;26644;50.248;19.032;2022-12-18T04:19:58;99751.97;;;-3.92;73.61
40918;BME280;26644;50.248;19.032;2022-12-18T04:21:02;99754.28;;;-3.97;73.89
40918;BME280;26644;50.248;19.032;2022-12-18T04:22:04;99753.81;;;-3.92;73.61
40918;BME280;26644;50.248;19.032;2022-12-18T04:23:12;99753.69;;;-3.90;73.85
40918;BME280;26644;50.248;19.032;2022-12-18T04:24:15;99755.34;;;-3.89;73.68
40918;BME280;26644;50.248;19.032;2022-12-18T04:25:25;99757.91;;;-3.88;73.83
40918;BME280;26644;50.248;19.032;2022-12-18T04:26:39;99759.41;;;-3.85;74.05
40918;BME280;26644;50.248;19.032;2022-12-18T04:27:48;99763.63;;;-3.83;73.73
40918;BME280;26644;50.248;19.032;2022-12-18T04:28:51;99771.53;;;-3.81;73.85
40918;BME280;26644;50.248;19.032;2022-12-18T04:29:54;99758.56;;;-3.86;73.46
40918;BME280;26644;50.248;19.032;2022-12-18T04:30:56;99773.19;;;-3.80;73.47
40918;BME280;26644;50.248;19.032;2022-12-18T04:31:58;99770.53;;;-3.80;73.54
40918;BME280;26644;50.248;19.032;2022-12-18T04:33:02;99781.13;;;-3.79;73.47
40918;BME280;26644;50.248;19.032;2022-12-18T04:34:06;99771.38;;;-3.80;73.29
40918;BME280;26644;50.248;19.032;2022-12-18T04:35:14;99768.69;;;-3.80;73.48
40918;BME280;26644;50.248;19.032;2022-12-18T04:36:18;99773.19;;;-3.80;73.72
40918;BME280;26644;50.248;19.032;2022-12-18T04:37:22;99778.44;;;-3.79;73.67
40918;BME280;26644;50.248;19.032;2022-12-18T04:38:24;99777.75;;;-3.81;73.52
40918;BME280;26644;50.248;19.032;2022-12-18T04:39:36;99782.28;;;-3.81;73.70
40918;BME280;26644;50.248;19.032;2022-12-18T04:40:43;99782.13;;;-3.80;73.45
40918;BME280;26644;50.248;19.032;2022-12-18T04:41:55;99775.22;;;-3.82;73.66
40918;BME280;26644;50.248;19.032;2022-12-18T04:42:57;99790.84;;;-3.78;73.53
40918;BME280;26644;50.248;19.032;2022-12-18T04:43:59;99782.94;;;-3.79;73.42
40918;BME280;26644;50.248;19.032;2022-12-18T04:45:03;99787.50;;;-3.80;73.37
40918;BME280;26644;50.248;19.032;2022-12-18T04:46:07;99794.69;;;-3.80;73.36
40918;BME280;26644;50.248;19.032;2022-12-18T04:47:09;99791.31;;;-3.82;73.61
40918;BME280;26644;50.248;19.032;2022-12-18T04:48:12;99787.66;;;-3.81;73.47
40918;BME280;26644;50.248;19.032;2022-12-18T04:49:13;99787.66;;;-3.81;73.63
40918;BME280;26644;50.248;19.032;2022-12-18T04:50:16;99797.34;;;-3.80;73.64
40918;BME280;26644;50.248;19.032;2022-12-18T04:51:20;99793.53;;;-3.78;73.49
40918;BME280;26644;50.248;19.032;2022-12-18T04:52:22;99788.00;;;-3.76;73.82
40918;BME280;26644;50.248;19.032;2022-12-18T04:53:24;99794.22;;;-3.76;73.54
40918;BME280;26644;50.248;19.032;2022-12-18T04:54:27;99805.81;;;-3.75;73.57
40918;BME280;26644;50.248;19.032;2022-12-18T04:55:30;99795.53;;;-3.80;73.64
40918;BME280;26644;50.248;19.032;2022-12-18T04:56:32;99803.44;;;-3.78;73.34
40918;BME280;26644;50.248;19.032;2022-12-18T04:57:34;99802.59;;;-3.79;73.51
40918;BME280;26644;50.248;19.032;2022-12-18T04:58:38;99793.63;;;-3.87;73.46
40918;BME280;26644;50.248;19.032;2022-12-18T04:59:40;99779.88;;;-4.02;73.58
40918;BME280;26644;50.248;19.032;2022-12-18T05:00:44;99809.25;;;-3.83;73.65
40918;BME280;26644;50.248;19.032;2022-12-18T05:01:45;99816.31;;;-3.82;73.66
40918;BME280;26644;50.248;19.032;2022-12-18T05:02:48;99809.13;;;-3.81;73.67
40918;BME280;26644;50.248;19.032;2022-12-18T05:03:51;99815.16;;;-3.79;73.94
40918;BME280;26644;50.248;19.032;2022-12-18T05:04:53;99800.34;;;-3.83;73.70
40918;BME280;26644;50.248;19.032;2022-12-18T05:05:55;99815.00;;;-3.78;73.46
40918;BME280;26644;50.248;19.032;2022-12-18T05:06:58;99817.69;;;-3.78;73.62
40918;BME280;26644;50.248;19.032;2022-12-18T05:07:59;99815.88;;;-3.77;73.63
40918;BME280;26644;50.248;19.032;2022-12-18T05:09:02;99816.03;;;-3.79;73.40
40918;BME280;26644;50.248;19.032;2022-12-18T05:10:05;99788.59;;;-4.00;73.67
40918;BME280;26644;50.248;19.032;2022-12-18T05:11:09;99811.84;;;-3.91;73.73
40918;BME280;26644;50.248;19.032;2022-12-18T05:12:13;99831.34;;;-3.89;73.72
40918;BME280;26644;50.248;19.032;2022-12-18T05:13:14;99825.41;;;-3.93;73.95
40918;BME280;26644;50.248;19.032;2022-12-18T05:14:18;99829.41;;;-3.97;73.94
40918;BME280;26644;50.248;19.032;2022-12-18T05:15:19;99822.66;;;-4.01;74.01
40918;BME280;26644;50.248;19.032;2022-12-18T05:16:23;99823.97;;;-4.05;74.23
40918;BME280;26644;50.248;19.032;2022-12-18T05:17:25;99829.59;;;-4.08;74.28
40918;BME280;26644;50.248;19.032;2022-12-18T05:18:27;99828.06;;;-4.11;74.42
40918;BME280;26644;50.248;19.032;2022-12-18T05:19:31;99830.06;;;-4.13;74.21
40918;BME280;26644;50.248;19.032;2022-12-18T05:20:32;99833.59;;;-4.12;74.46
40918;BME280;26644;50.248;19.032;2022-12-18T05:21:35;99825.69;;;-4.14;74.56
40918;BME280;26644;50.248;19.032;2022-12-18T05:22:36;99825.69;;;-4.14;74.81
40918;BME280;26644;50.248;19.032;2022-12-18T05:23:38;99830.91;;;-4.12;74.61
40918;BME280;26644;50.248;19.032;2022-12-18T05:24:41;99830.06;;;-4.13;74.66
40918;BME280;26644;50.248;19.032;2022-12-18T05:25:47;99837.56;;;-4.16;74.72
40918;BME280;26644;50.248;19.032;2022-12-18T05:26:51;99840.25;;;-4.16;75.04
40918;BME280;26644;50.248;19.032;2022-12-18T05:27:54;99833.91;;;-4.15;75.04
40918;BME280;26644;50.248;19.032;2022-12-18T05:28:56;99835.75;;;-4.16;74.73
40918;BME280;26644;50.248;19.032;2022-12-18T05:29:59;99826.00;;;-4.17;74.96
40918;BME280;26644;50.248;19.032;2022-12-18T05:31:02;99834.19;;;-4.18;75.12
40918;BME280;26644;50.248;19.032;2022-12-18T05:32:07;99834.31;;;-4.20;75.00
40918;BME280;26644;50.248;19.032;2022-12-18T05:33:08;99834.47;;;-4.21;75.00
40918;BME280;26644;50.248;19.032;2022-12-18T05:34:11;99841.53;;;-4.20;75.13
40918;BME280;26644;50.248;19.032;2022-12-18T05:35:13;99844.22;;;-4.20;75.04
40918;BME280;26644;50.248;19.032;2022-12-18T05:36:15;99841.53;;;-4.20;75.20
40918;BME280;26644;50.248;19.032;2022-12-18T05:37:16;99837.00;;;-4.20;75.01
40918;BME280;26644;50.248;19.032;2022-12-18T05:38:19;99833.09;;;-4.26;75.29
40918;BME280;26644;50.248;19.032;2022-12-18T05:39:21;99839.69;;;-4.20;75.28
40918;BME280;26644;50.248;19.032;2022-12-18T05:40:24;99835.78;;;-4.26;75.36
40918;BME280;26644;50.248;19.032;2022-12-18T05:41:26;99840.88;;;-4.22;75.32
40918;BME280;26644;50.248;19.032;2022-12-18T05:42:28;99843.66;;;-4.24;75.22
40918;BME280;26644;50.248;19.032;2022-12-18T05:43:30;99839.31;;;-4.25;74.96
40918;BME280;26644;50.248;19.032;2022-12-18T05:44:35;99850.06;;;-4.25;75.12
40918;BME280;26644;50.248;19.032;2022-12-18T05:45:37;99849.03;;;-4.24;75.49
40918;BME280;26644;50.248;19.032;2022-12-18T05:46:40;99840.97;;;-4.24;75.50
40918;BME280;26644;50.248;19.032;2022-12-18T05:47:43;99840.97;;;-4.24;75.54
40918;BME280;26644;50.248;19.032;2022-12-18T05:48:45;99844.38;;;-4.22;75.48
40918;BME280;26644;50.248;19.032;2022-12-18T05:49:47;99850.28;;;-4.18;75.45
40918;BME280;26644;50.248;19.032;2022-12-18T05:50:51;99848.44;;;-4.18;75.24